Anjeliersgracht — PCGQ — position and weather

sailwx.info

Track history (hours):
 
Tides and Currents Weather Stations Pressure Air Temp Water Temp Dewpoint Dewpoint Depression Visibility Wind Speed Wind Dir Waves Ship Positions

Anjeliersgracht

Last reported at 2016-Aug-24 10:27 UTC. Time now 2016-Aug-25 18:21 UTC.
Position N 40°44' E 029°35'.

Length 130 m; beam 19 m; draft 9 m.

Type: Cargo ship. MMSI: 244716000.

Date/timePositionNaut miles runAvg speedWind from/ knotsBaromVisibWave heightAir tempDewpointWater temp
2016-Aug-24 10:27N 40°44' E 029°35'1011.1
2016-Aug-24 09:33N 40°43' E 029°22'1111.4
2016-Aug-24 08:33N 40°44' E 029°07'24011.7
2016-Aug-23 12:00N 38°24' E 024°54'9512.0 350 / 151012.310.8 1.026.022.523.8
2016-Aug-23 04:07N 37°02' E 023°54'712.6
2016-Aug-23 03:33N 36°56' E 023°49'1313.0
2016-Aug-23 02:33N 36°46' E 023°39'1413.4
2016-Aug-23 01:32N 36°35' E 023°28'18213.5
2016-Aug-22 12:00N 36°24' E 019°42'14213.5 999 / 41014.310.8 0.528.023.226.4
2016-Aug-22 01:29N 36°30' E 016°45'1313.5
2016-Aug-22 00:29N 36°31' E 016°28'1213.3
2016-Aug-21 23:34N 36°31' E 016°13'1413.7
2016-Aug-21 22:34N 36°31' E 015°56'1414.0
2016-Aug-21 21:33N 36°31' E 015°39'1414.0
2016-Aug-21 20:33N 36°32' E 015°21'1413.7
2016-Aug-21 19:33N 36°33' E 015°04'1413.8
2016-Aug-21 18:33N 36°36' E 014°47'1413.8
2016-Aug-21 17:33N 36°39' E 014°31'1413.6
2016-Aug-21 16:33N 36°43' E 014°15'1414.0
2016-Aug-21 15:34N 36°45' E 013°57'1414.4
2016-Aug-21 14:34N 36°48' E 013°40'1514.6
2016-Aug-21 13:34N 36°52' E 013°22'1514.6
2016-Aug-21 12:34N 36°55' E 013°04'1414.0
2016-Aug-21 11:34N 36°59' E 012°47'1413.9
2016-Aug-21 10:33N 37°02' E 012°30'1414.0
2016-Aug-21 09:33N 37°05' E 012°13'1514.4
2016-Aug-21 08:30N 37°08' E 011°55'4214.2
2016-Aug-21 05:33N 37°23' E 011°05'1414.4
2016-Aug-21 04:33N 37°27' E 010°48'9814.0
2016-Aug-20 21:32N 37°36' E 008°45'4013.3
2016-Aug-20 18:30N 37°31' E 007°54'1913.3
2016-Aug-20 17:05N 37°29' E 007°30'814.0
2016-Aug-20 16:31N 37°28' E 007°20'5614.0
2016-Aug-20 12:32N 37°22' E 006°10'1413.9
2016-Aug-20 11:33N 37°20' E 005°53'1413.7
2016-Aug-20 10:34N 37°18' E 005°36'2713.6
2016-Aug-20 08:33N 37°16' E 005°02'1313.2
2016-Aug-20 07:33N 37°14' E 004°46'1313.1
2016-Aug-20 06:33N 37°13' E 004°29'1313.1
2016-Aug-20 05:33N 37°12' E 004°13'1313.5
2016-Aug-20 04:33N 37°10' E 003°56'9713.9
2016-Aug-19 21:33N 36°55' E 001°56'1313.4
2016-Aug-19 20:33N 36°53' E 001°39'1413.8
2016-Aug-19 19:33N 36°50' E 001°22'1413.9
2016-Aug-19 18:31N 36°48' E 001°05'1313.7
2016-Aug-19 17:33N 36°45' E 000°48'1514.6
2016-Aug-19 16:33N 36°42' E 000°31'1514.3
2016-Aug-19 15:31N 36°39' E 000°13'2713.6
2016-Aug-19 13:33N 36°35' W 000°20'1612.9
2016-Aug-19 12:19N 36°31' W 000°40'7013.9
2016-Aug-19 07:18N 36°18' W 002°05'7014.6
2016-Aug-19 02:31N 36°08' W 003°30'6515.5
2016-Aug-18 22:17N 36°02' W 004°51'1616.3
2016-Aug-18 21:19N 36°00' W 005°10'1317.3
2016-Aug-18 20:34N 35°57' W 005°26'1715.7
2016-Aug-18 19:29N 35°55' W 005°47'8514.0
2016-Aug-18 13:26N 35°52' W 007°31'2613.7
2016-Aug-18 11:33N 35°51' W 008°03'2713.6
2016-Aug-18 09:33N 35°49' W 008°37'1313.4
2016-Aug-18 08:33N 35°49' W 008°53'1413.5
2016-Aug-18 07:29N 35°48' W 009°11'1213.4
2016-Aug-18 06:33N 35°47' W 009°26'2713.1
2016-Aug-18 04:28N 35°47' W 010°00'2613.3
2016-Aug-18 02:30N 35°46' W 010°32'36013.6
2016-Aug-17 00:00N 35°30' W 017°54'27113.9 300 / 61020.510.8 22.020.723.2
2016-Aug-16 04:33N 35°21' W 023°26'1414.2
2016-Aug-16 03:33N 35°20' W 023°43'1514.2
2016-Aug-16 02:32N 35°20' W 024°01'1614.1
2016-Aug-16 01:25N 35°19' W 024°20'1812.5
2016-Aug-16 00:00N 35°18' W 024°42'1516.4 170 / 101021.710.8 0.523.120.823.9
2016-Aug-15 23:04N 35°18' W 025°01'814.1
2016-Aug-15 22:31N 35°18' W 025°10'1414.2
2016-Aug-15 21:32N 35°17' W 025°27'1414.4
2016-Aug-15 20:33N 35°17' W 025°45'3014.4
2016-Aug-15 18:27N 35°15' W 026°21'15814.2
2016-Aug-15 07:23N 35°09' W 029°34'8114.0
2016-Aug-15 01:33N 35°05' W 031°13'2415.3
2016-Aug-15 00:00N 35°00' W 031°42'2113.3 210 / 111026.510.8 0.523.920.125.1
2016-Aug-14 22:24N 35°04' W 032°07'  
Track history (hours):
 
Tides and Currents Weather Stations Pressure Air Temp Water Temp Dewpoint Dewpoint Depression Visibility Wind Speed Wind Dir Waves Ship Positions

Anjeliersgracht

Last reported at 2016-Aug-24 10:27 UTC. Time now 2016-Aug-25 18:21 UTC.
Position N 40°44' E 029°35'.

Length 130 m; beam 19 m; draft 9 m.

Type: Cargo ship. MMSI: 244716000.

Date/timePositionNaut miles runAvg speedWind from/ knotsBaromVisibWave heightAir tempDewpointWater temp
2016-Aug-24 10:27N 40°44' E 029°35'1011.1
2016-Aug-24 09:33N 40°43' E 029°22'1111.4
2016-Aug-24 08:33N 40°44' E 029°07'24011.7
2016-Aug-23 12:00N 38°24' E 024°54'9512.0 350 / 151012.310.8 1.026.022.523.8
2016-Aug-23 04:07N 37°02' E 023°54'712.6
2016-Aug-23 03:33N 36°56' E 023°49'1313.0
2016-Aug-23 02:33N 36°46' E 023°39'1413.4
2016-Aug-23 01:32N 36°35' E 023°28'18213.5
2016-Aug-22 12:00N 36°24' E 019°42'14213.5 999 / 41014.310.8 0.528.023.226.4
2016-Aug-22 01:29N 36°30' E 016°45'1313.5
2016-Aug-22 00:29N 36°31' E 016°28'1213.3
2016-Aug-21 23:34N 36°31' E 016°13'1413.7
2016-Aug-21 22:34N 36°31' E 015°56'1414.0
2016-Aug-21 21:33N 36°31' E 015°39'1414.0
2016-Aug-21 20:33N 36°32' E 015°21'1413.7
2016-Aug-21 19:33N 36°33' E 015°04'1413.8
2016-Aug-21 18:33N 36°36' E 014°47'1413.8
2016-Aug-21 17:33N 36°39' E 014°31'1413.6
2016-Aug-21 16:33N 36°43' E 014°15'1414.0
2016-Aug-21 15:34N 36°45' E 013°57'1414.4
2016-Aug-21 14:34N 36°48' E 013°40'1514.6
2016-Aug-21 13:34N 36°52' E 013°22'1514.6
2016-Aug-21 12:34N 36°55' E 013°04'1414.0
2016-Aug-21 11:34N 36°59' E 012°47'1413.9
2016-Aug-21 10:33N 37°02' E 012°30'1414.0
2016-Aug-21 09:33N 37°05' E 012°13'1514.4
2016-Aug-21 08:30N 37°08' E 011°55'4214.2
2016-Aug-21 05:33N 37°23' E 011°05'1414.4
2016-Aug-21 04:33N 37°27' E 010°48'9814.0
2016-Aug-20 21:32N 37°36' E 008°45'4013.3
2016-Aug-20 18:30N 37°31' E 007°54'1913.3
2016-Aug-20 17:05N 37°29' E 007°30'814.0
2016-Aug-20 16:31N 37°28' E 007°20'5614.0
2016-Aug-20 12:32N 37°22' E 006°10'1413.9
2016-Aug-20 11:33N 37°20' E 005°53'1413.7
2016-Aug-20 10:34N 37°18' E 005°36'2713.6
2016-Aug-20 08:33N 37°16' E 005°02'1313.2
2016-Aug-20 07:33N 37°14' E 004°46'1313.1
2016-Aug-20 06:33N 37°13' E 004°29'1313.1
2016-Aug-20 05:33N 37°12' E 004°13'1313.5
2016-Aug-20 04:33N 37°10' E 003°56'9713.9
2016-Aug-19 21:33N 36°55' E 001°56'1313.4
2016-Aug-19 20:33N 36°53' E 001°39'1413.8
2016-Aug-19 19:33N 36°50' E 001°22'1413.9
2016-Aug-19 18:31N 36°48' E 001°05'1313.7
2016-Aug-19 17:33N 36°45' E 000°48'1514.6
2016-Aug-19 16:33N 36°42' E 000°31'1514.3
2016-Aug-19 15:31N 36°39' E 000°13'2713.6
2016-Aug-19 13:33N 36°35' W 000°20'1612.9
2016-Aug-19 12:19N 36°31' W 000°40'7013.9
2016-Aug-19 07:18N 36°18' W 002°05'7014.6
2016-Aug-19 02:31N 36°08' W 003°30'6515.5
2016-Aug-18 22:17N 36°02' W 004°51'1616.3
2016-Aug-18 21:19N 36°00' W 005°10'1317.3
2016-Aug-18 20:34N 35°57' W 005°26'1715.7
2016-Aug-18 19:29N 35°55' W 005°47'8514.0
2016-Aug-18 13:26N 35°52' W 007°31'2613.7
2016-Aug-18 11:33N 35°51' W 008°03'2713.6
2016-Aug-18 09:33N 35°49' W 008°37'1313.4
2016-Aug-18 08:33N 35°49' W 008°53'1413.5
2016-Aug-18 07:29N 35°48' W 009°11'1213.4
2016-Aug-18 06:33N 35°47' W 009°26'2713.1
2016-Aug-18 04:28N 35°47' W 010°00'2613.3
2016-Aug-18 02:30N 35°46' W 010°32'36013.6
2016-Aug-17 00:00N 35°30' W 017°54'27113.9 300 / 61020.510.8 22.020.723.2
2016-Aug-16 04:33N 35°21' W 023°26'1414.2
2016-Aug-16 03:33N 35°20' W 023°43'1514.2
2016-Aug-16 02:32N 35°20' W 024°01'1614.1
2016-Aug-16 01:25N 35°19' W 024°20'1812.5
2016-Aug-16 00:00N 35°18' W 024°42'1516.4 170 / 101021.710.8 0.523.120.823.9
2016-Aug-15 23:04N 35°18' W 025°01'814.1
2016-Aug-15 22:31N 35°18' W 025°10'1414.2
2016-Aug-15 21:32N 35°17' W 025°27'1414.4
2016-Aug-15 20:33N 35°17' W 025°45'3014.4
2016-Aug-15 18:27N 35°15' W 026°21'15814.2
2016-Aug-15 07:23N 35°09' W 029°34'8114.0
2016-Aug-15 01:33N 35°05' W 031°13'2415.3
2016-Aug-15 00:00N 35°00' W 031°42'2113.3 210 / 111026.510.8 0.523.920.125.1
2016-Aug-14 22:24N 35°04' W 032°07'  

Dump ship's entire track history